sensor_id;sensor_type;location;lat;lon;timestamp;pressure;altitude;pressure_sealevel;temperature;humidity
12636;BME280;6383;50.830;7.210;2023-04-10T00:00:08;101506.06;;;9.70;57.84
12636;BME280;6383;50.830;7.210;2023-04-10T00:02:37;101497.09;;;9.70;57.09
12636;BME280;6383;50.830;7.210;2023-04-10T00:05:07;101497.09;;;9.70;57.41
12636;BME280;6383;50.830;7.210;2023-04-10T00:07:35;101491.66;;;9.70;57.39
12636;BME280;6383;50.830;7.210;2023-04-10T00:10:04;101492.75;;;9.69;58.29
12636;BME280;6383;50.830;7.210;2023-04-10T00:12:34;101492.19;;;9.67;58.69
12636;BME280;6383;50.830;7.210;2023-04-10T00:15:02;101479.19;;;9.64;57.56
12636;BME280;6383;50.830;7.210;2023-04-10T00:17:31;101490.31;;;9.62;57.65
12636;BME280;6383;50.830;7.210;2023-04-10T00:20:00;101477.25;;;9.59;58.47
12636;BME280;6383;50.830;7.210;2023-04-10T00:22:29;101484.31;;;9.55;58.58
12636;BME280;6383;50.830;7.210;2023-04-10T00:24:59;101482.94;;;9.52;59.11
12636;BME280;6383;50.830;7.210;2023-04-10T00:27:27;101485.13;;;9.50;58.38
12636;BME280;6383;50.830;7.210;2023-04-10T00:29:56;101480.25;;;9.47;58.40
12636;BME280;6383;50.830;7.210;2023-04-10T00:32:32;101472.09;;;9.42;57.09
12636;BME280;6383;50.830;7.210;2023-04-10T00:35:08;101479.16;;;9.33;59.20
12636;BME280;6383;50.830;7.210;2023-04-10T00:37:37;101481.03;;;9.33;59.68
12636;BME280;6383;50.830;7.210;2023-04-10T00:40:07;101475.63;;;9.33;59.55
12636;BME280;6383;50.830;7.210;2023-04-10T00:42:35;101473.97;;;9.32;58.56
12636;BME280;6383;50.830;7.210;2023-04-10T00:45:05;101468.81;;;9.30;58.68
12636;BME280;6383;50.830;7.210;2023-04-10T00:47:36;101475.31;;;9.29;58.67
12636;BME280;6383;50.830;7.210;2023-04-10T00:50:10;101464.47;;;9.29;58.68
12636;BME280;6383;50.830;7.210;2023-04-10T00:52:40;101459.03;;;9.29;59.91
12636;BME280;6383;50.830;7.210;2023-04-10T00:55:09;101457.66;;;9.27;59.78
12636;BME280;6383;50.830;7.210;2023-04-10T00:57:43;101459.56;;;9.26;59.07
12636;BME280;6383;50.830;7.210;2023-04-10T01:00:12;101456.28;;;9.24;58.98
12636;BME280;6383;50.830;7.210;2023-04-10T01:02:42;101461.72;;;9.24;58.79
12636;BME280;6383;50.830;7.210;2023-04-10T01:05:11;101452.22;;;9.22;59.84
12636;BME280;6383;50.830;7.210;2023-04-10T01:07:50;101449.75;;;9.20;59.12
12636;BME280;6383;50.830;7.210;2023-04-10T01:10:26;101450.88;;;9.19;59.96
12636;BME280;6383;50.830;7.210;2023-04-10T01:13:03;101453.59;;;9.19;59.88
12636;BME280;6383;50.830;7.210;2023-04-10T01:15:41;101449.25;;;9.18;60.12
12636;BME280;6383;50.830;7.210;2023-04-10T01:18:16;101452.78;;;9.18;59.53
12636;BME280;6383;50.830;7.210;2023-04-10T01:20:47;101446.53;;;9.18;60.19
12636;BME280;6383;50.830;7.210;2023-04-10T01:26:15;101448.97;;;9.14;59.91
12636;BME280;6383;50.830;7.210;2023-04-10T01:28:53;101446.78;;;9.11;60.11
12636;BME280;6383;50.830;7.210;2023-04-10T01:31:29;101443.50;;;9.09;60.07
12636;BME280;6383;50.830;7.210;2023-04-10T01:34:05;101446.22;;;9.09;59.66
12636;BME280;6383;50.830;7.210;2023-04-10T01:36:37;101441.88;;;9.08;60.45
12636;BME280;6383;50.830;7.210;2023-04-10T01:39:09;101434.53;;;9.09;60.42
12636;BME280;6383;50.830;7.210;2023-04-10T01:41:40;101433.47;;;9.10;60.53
12636;BME280;6383;50.830;7.210;2023-04-10T01:44:14;101412.56;;;9.10;59.48
12636;BME280;6383;50.830;7.210;2023-04-10T01:46:43;101407.66;;;9.07;59.60
12636;BME280;6383;50.830;7.210;2023-04-10T01:49:12;101402.50;;;9.06;59.93
12636;BME280;6383;50.830;7.210;2023-04-10T01:51:42;101400.34;;;9.03;60.53
12636;BME280;6383;50.830;7.210;2023-04-10T01:54:12;101393.28;;;9.02;60.33
12636;BME280;6383;50.830;7.210;2023-04-10T01:56:40;101396.00;;;9.02;60.84
12636;BME280;6383;50.830;7.210;2023-04-10T01:59:10;101397.88;;;9.01;59.93
12636;BME280;6383;50.830;7.210;2023-04-10T02:01:39;101395.44;;;9.00;60.51
12636;BME280;6383;50.830;7.210;2023-04-10T02:04:08;101397.59;;;8.98;60.84
12636;BME280;6383;50.830;7.210;2023-04-10T02:06:43;101386.19;;;8.96;60.47
12636;BME280;6383;50.830;7.210;2023-04-10T02:09:16;101385.66;;;8.94;59.77
12636;BME280;6383;50.830;7.210;2023-04-10T02:11:52;101391.59;;;8.91;60.40
12636;BME280;6383;50.830;7.210;2023-04-10T02:14:24;101375.63;;;8.89;60.86
12636;BME280;6383;50.830;7.210;2023-04-10T02:16:55;101375.88;;;8.88;60.48
12636;BME280;6383;50.830;7.210;2023-04-10T02:19:24;101372.63;;;8.86;60.41
12636;BME280;6383;50.830;7.210;2023-04-10T02:21:54;101375.34;;;8.86;60.46
12636;BME280;6383;50.830;7.210;2023-04-10T02:24:24;101369.34;;;8.83;60.89
12636;BME280;6383;50.830;7.210;2023-04-10T02:26:54;101374.22;;;8.81;60.92
12636;BME280;6383;50.830;7.210;2023-04-10T02:29:23;101367.72;;;8.82;60.88
12636;BME280;6383;50.830;7.210;2023-04-10T02:31:51;101364.47;;;8.80;60.81
12636;BME280;6383;50.830;7.210;2023-04-10T02:34:21;101351.97;;;8.79;60.43
12636;BME280;6383;50.830;7.210;2023-04-10T02:36:50;101356.84;;;8.77;61.47
12636;BME280;6383;50.830;7.210;2023-04-10T02:39:18;101363.09;;;8.78;60.74
12636;BME280;6383;50.830;7.210;2023-04-10T02:41:46;101354.94;;;8.78;60.70
12636;BME280;6383;50.830;7.210;2023-04-10T02:44:15;101357.66;;;8.78;60.74
12636;BME280;6383;50.830;7.210;2023-04-10T02:46:42;101354.13;;;8.77;60.61
12636;BME280;6383;50.830;7.210;2023-04-10T02:49:13;101353.31;;;8.77;61.26
12636;BME280;6383;50.830;7.210;2023-04-10T02:51:42;101364.16;;;8.77;61.02
12636;BME280;6383;50.830;7.210;2023-04-10T02:54:11;101359.03;;;8.75;61.83
12636;BME280;6383;50.830;7.210;2023-04-10T02:56:40;101361.19;;;8.73;61.40
12636;BME280;6383;50.830;7.210;2023-04-10T02:59:10;101351.44;;;8.72;61.24
12636;BME280;6383;50.830;7.210;2023-04-10T03:01:39;101359.00;;;8.70;61.71
12636;BME280;6383;50.830;7.210;2023-04-10T03:04:06;101358.19;;;8.70;61.35
12636;BME280;6383;50.830;7.210;2023-04-10T03:06:33;101360.91;;;8.70;61.07
12636;BME280;6383;50.830;7.210;2023-04-10T03:09:04;101366.59;;;8.68;61.42
12636;BME280;6383;50.830;7.210;2023-04-10T03:11:33;101364.16;;;8.67;62.26
12636;BME280;6383;50.830;7.210;2023-04-10T03:14:03;101364.16;;;8.67;61.42
12636;BME280;6383;50.830;7.210;2023-04-10T03:16:32;101361.72;;;8.65;61.18
12636;BME280;6383;50.830;7.210;2023-04-10T03:19:00;101354.91;;;8.63;61.78
12636;BME280;6383;50.830;7.210;2023-04-10T03:21:28;101364.13;;;8.62;62.33
12636;BME280;6383;50.830;7.210;2023-04-10T03:23:57;101356.00;;;8.57;62.14
12636;BME280;6383;50.830;7.210;2023-04-10T03:26:27;101362.78;;;8.54;62.55
12636;BME280;6383;50.830;7.210;2023-04-10T03:28:55;101350.56;;;8.52;62.21
12636;BME280;6383;50.830;7.210;2023-04-10T03:31:24;101348.91;;;8.51;62.08
12636;BME280;6383;50.830;7.210;2023-04-10T03:33:53;101349.72;;;8.51;62.85
12636;BME280;6383;50.830;7.210;2023-04-10T03:36:21;101353.53;;;8.50;62.37
12636;BME280;6383;50.830;7.210;2023-04-10T03:38:49;101350.25;;;8.48;62.62
12636;BME280;6383;50.830;7.210;2023-04-10T03:41:18;101343.19;;;8.47;62.10
12636;BME280;6383;50.830;7.210;2023-04-10T03:43:49;101339.16;;;8.44;61.88
12636;BME280;6383;50.830;7.210;2023-04-10T03:46:18;101332.91;;;8.44;62.83
12636;BME280;6383;50.830;7.210;2023-04-10T03:48:48;101332.09;;;8.43;62.81
12636;BME280;6383;50.830;7.210;2023-04-10T03:51:18;101322.59;;;8.41;62.17
12636;BME280;6383;50.830;7.210;2023-04-10T03:53:47;101332.63;;;8.40;62.38
12636;BME280;6383;50.830;7.210;2023-04-10T03:56:16;101316.88;;;8.37;62.86
12636;BME280;6383;50.830;7.210;2023-04-10T03:58:45;101310.09;;;8.35;62.97
12636;BME280;6383;50.830;7.210;2023-04-10T04:01:14;101311.16;;;8.34;63.12
12636;BME280;6383;50.830;7.210;2023-04-10T04:03:43;101314.97;;;8.33;62.84
12636;BME280;6383;50.830;7.210;2023-04-10T04:06:12;101310.88;;;8.30;62.93
12636;BME280;6383;50.830;7.210;2023-04-10T04:08:39;101307.59;;;8.28;61.84
12636;BME280;6383;50.830;7.210;2023-04-10T04:11:07;101317.63;;;8.28;62.27
12636;BME280;6383;50.830;7.210;2023-04-10T04:13:36;101311.66;;;8.26;62.40
12636;BME280;6383;50.830;7.210;2023-04-10T04:16:05;101309.47;;;8.23;62.47
12636;BME280;6383;50.830;7.210;2023-04-10T04:18:36;101308.94;;;8.21;62.48
12636;BME280;6383;50.830;7.210;2023-04-10T04:21:05;101307.28;;;8.20;62.40
12636;BME280;6383;50.830;7.210;2023-04-10T04:23:34;101302.13;;;8.18;63.17
12636;BME280;6383;50.830;7.210;2023-04-10T04:26:04;101306.75;;;8.18;62.65
12636;BME280;6383;50.830;7.210;2023-04-10T04:28:33;101306.22;;;8.16;62.65
12636;BME280;6383;50.830;7.210;2023-04-10T04:31:02;101311.09;;;8.13;62.41
12636;BME280;6383;50.830;7.210;2023-04-10T04:33:32;101310.53;;;8.11;62.85
12636;BME280;6383;50.830;7.210;2023-04-10T04:36:01;101301.84;;;8.09;62.38
12636;BME280;6383;50.830;7.210;2023-04-10T04:38:29;101301.03;;;8.09;63.23
12636;BME280;6383;50.830;7.210;2023-04-10T04:40:58;101305.38;;;8.10;62.45
12636;BME280;6383;50.830;7.210;2023-04-10T04:43:27;101310.78;;;8.10;62.66
12636;BME280;6383;50.830;7.210;2023-04-10T04:45:56;101310.78;;;8.10;62.66
12636;BME280;6383;50.830;7.210;2023-04-10T04:48:26;101305.38;;;8.10;63.01
12636;BME280;6383;50.830;7.210;2023-04-10T04:50:54;101314.06;;;8.12;63.29
12636;BME280;6383;50.830;7.210;2023-04-10T04:53:24;101311.91;;;8.14;62.61
12636;BME280;6383;50.830;7.210;2023-04-10T04:55:53;101308.94;;;8.16;62.56
12636;BME280;6383;50.830;7.210;2023-04-10T04:58:20;101308.63;;;8.17;62.92
12636;BME280;6383;50.830;7.210;2023-04-10T05:00:50;101309.75;;;8.16;62.77
12636;BME280;6383;50.830;7.210;2023-04-10T05:03:18;101304.31;;;8.16;62.94
12636;BME280;6383;50.830;7.210;2023-04-10T05:05:46;101314.06;;;8.17;62.53
12636;BME280;6383;50.830;7.210;2023-04-10T05:08:14;101308.38;;;8.19;63.13
12636;BME280;6383;50.830;7.210;2023-04-10T05:10:44;101310.00;;;8.20;63.59
12636;BME280;6383;50.830;7.210;2023-04-10T05:13:12;101308.66;;;8.22;62.43
12636;BME280;6383;50.830;7.210;2023-04-10T05:15:42;101306.50;;;8.24;62.57
12636;BME280;6383;50.830;7.210;2023-04-10T05:18:11;101292.41;;;8.22;62.66
12636;BME280;6383;50.830;7.210;2023-04-10T05:20:40;101300.25;;;8.24;63.68
12636;BME280;6383;50.830;7.210;2023-04-10T05:23:09;101302.44;;;8.27;62.95
12636;BME280;6383;50.830;7.210;2023-04-10T05:25:36;101303.00;;;8.29;63.76
12636;BME280;6383;50.830;7.210;2023-04-10T05:28:06;101303.28;;;8.32;62.99
12636;BME280;6383;50.830;7.210;2023-04-10T05:30:35;101300.59;;;8.37;62.35
12636;BME280;6383;50.830;7.210;2023-04-10T05:33:02;101305.78;;;8.44;63.35
12636;BME280;6383;50.830;7.210;2023-04-10T05:35:32;101298.72;;;8.48;62.51
12636;BME280;6383;50.830;7.210;2023-04-10T05:38:01;101303.91;;;8.55;62.57
12636;BME280;6383;50.830;7.210;2023-04-10T05:40:28;101311.75;;;8.61;63.05
12636;BME280;6383;50.830;7.210;2023-04-10T05:42:57;101314.22;;;8.68;62.50
12636;BME280;6383;50.830;7.210;2023-04-10T05:45:27;101308.81;;;8.73;61.96
12636;BME280;6383;50.830;7.210;2023-04-10T05:47:56;101316.41;;;8.81;62.73
12636;BME280;6383;50.830;7.210;2023-04-10T05:50:23;101315.91;;;8.89;61.18
12636;BME280;6383;50.830;7.210;2023-04-10T05:52:51;101318.88;;;8.98;61.30
12636;BME280;6383;50.830;7.210;2023-04-10T05:55:20;101310.47;;;9.04;61.15
12636;BME280;6383;50.830;7.210;2023-04-10T05:57:49;101313.44;;;9.13;61.55
12636;BME280;6383;50.830;7.210;2023-04-10T06:00:19;101316.41;;;9.22;61.08
12636;BME280;6383;50.830;7.210;2023-04-10T06:02:49;101317.78;;;9.29;60.57
12636;BME280;6383;50.830;7.210;2023-04-10T06:05:18;101318.03;;;9.38;60.00
12636;BME280;6383;50.830;7.210;2023-04-10T06:07:47;101316.41;;;9.47;60.67
12636;BME280;6383;50.830;7.210;2023-04-10T06:10:15;101316.66;;;9.55;60.26
12636;BME280;6383;50.830;7.210;2023-04-10T06:12:45;101314.19;;;9.64;59.35
12636;BME280;6383;50.830;7.210;2023-04-10T06:15:14;101318.78;;;9.74;59.52
12636;BME280;6383;50.830;7.210;2023-04-10T06:17:41;101315.75;;;9.80;58.90
12636;BME280;6383;50.830;7.210;2023-04-10T06:20:12;101310.31;;;9.85;59.41
12636;BME280;6383;50.830;7.210;2023-04-10T06:22:41;101308.13;;;9.93;58.92
12636;BME280;6383;50.830;7.210;2023-04-10T06:25:10;101301.84;;;9.97;58.91
12636;BME280;6383;50.830;7.210;2023-04-10T06:27:39;101303.19;;;10.05;58.45
12636;BME280;6383;50.830;7.210;2023-04-10T06:30:08;101302.03;;;10.11;58.97
12636;BME280;6383;50.830;7.210;2023-04-10T06:32:37;101303.13;;;10.15;58.34
12636;BME280;6383;50.830;7.210;2023-04-10T06:35:07;101306.69;;;10.20;57.80
12636;BME280;6383;50.830;7.210;2023-04-10T06:37:36;101292.22;;;10.25;57.74
12636;BME280;6383;50.830;7.210;2023-04-10T06:40:06;101293.56;;;10.28;57.18
12636;BME280;6383;50.830;7.210;2023-04-10T06:42:35;101298.19;;;10.32;57.12
12636;BME280;6383;50.830;7.210;2023-04-10T06:45:05;101299.78;;;10.38;57.52
12636;BME280;6383;50.830;7.210;2023-04-10T06:47:33;101292.66;;;10.42;57.54
12636;BME280;6383;50.830;7.210;2023-04-10T06:50:03;101301.63;;;10.48;57.05
12636;BME280;6383;50.830;7.210;2023-04-10T06:52:31;101293.44;;;10.53;57.43
12636;BME280;6383;50.830;7.210;2023-04-10T06:55:01;101296.09;;;10.58;55.84
12636;BME280;6383;50.830;7.210;2023-04-10T06:57:31;101296.91;;;10.64;56.83
12636;BME280;6383;50.830;7.210;2023-04-10T07:00:00;101297.97;;;10.68;55.96
12636;BME280;6383;50.830;7.210;2023-04-10T07:02:27;101300.06;;;10.76;56.03
12636;BME280;6383;50.830;7.210;2023-04-10T07:04:57;101300.88;;;10.81;56.54
12636;BME280;6383;50.830;7.210;2023-04-10T07:07:26;101300.25;;;10.89;56.13
12636;BME280;6383;50.830;7.210;2023-04-10T07:09:55;101307.00;;;10.97;55.27
12636;BME280;6383;50.830;7.210;2023-04-10T07:12:27;101308.28;;;11.05;55.31
12636;BME280;6383;50.830;7.210;2023-04-10T07:14:54;101305.25;;;11.11;54.86
12636;BME280;6383;50.830;7.210;2023-04-10T07:17:22;101313.59;;;11.20;54.41
12636;BME280;6383;50.830;7.210;2023-04-10T07:19:52;101301.56;;;11.26;55.45
12636;BME280;6383;50.830;7.210;2023-04-10T07:22:19;101301.75;;;11.35;55.02
12636;BME280;6383;50.830;7.210;2023-04-10T07:24:48;101307.38;;;11.43;54.23
12636;BME280;6383;50.830;7.210;2023-04-10T07:27:18;101291.50;;;11.50;54.89
12636;BME280;6383;50.830;7.210;2023-04-10T07:29:48;101286.53;;;11.57;53.76
12636;BME280;6383;50.830;7.210;2023-04-10T07:32:17;101290.25;;;11.66;54.40
12636;BME280;6383;50.830;7.210;2023-04-10T07:34:46;101279.50;;;11.75;53.52
12636;BME280;6383;50.830;7.210;2023-04-10T07:37:15;101265.28;;;11.83;53.35
12636;BME280;6383;50.830;7.210;2023-04-10T07:39:43;101263.50;;;11.92;52.61
12636;BME280;6383;50.830;7.210;2023-04-10T07:42:12;101275.41;;;12.02;53.11
12636;BME280;6383;50.830;7.210;2023-04-10T07:44:41;101263.03;;;12.09;52.26
12636;BME280;6383;50.830;7.210;2023-04-10T07:47:12;101267.53;;;12.19;52.17
12636;BME280;6383;50.830;7.210;2023-04-10T07:49:41;101261.13;;;12.28;52.10
12636;BME280;6383;50.830;7.210;2023-04-10T07:52:10;101261.28;;;12.37;51.47
12636;BME280;6383;50.830;7.210;2023-04-10T07:54:45;101253.25;;;12.46;51.44
12636;BME280;6383;50.830;7.210;2023-04-10T07:57:14;101257.72;;;12.55;50.86
12636;BME280;6383;50.830;7.210;2023-04-10T07:59:42;101241.75;;;12.62;50.68
12636;BME280;6383;50.830;7.210;2023-04-10T08:02:13;101254.75;;;12.70;49.92
12636;BME280;6383;50.830;7.210;2023-04-10T08:04:42;101248.91;;;12.77;50.32
12636;BME280;6383;50.830;7.210;2023-04-10T08:07:12;101243.88;;;12.84;48.96
12636;BME280;6383;50.830;7.210;2023-04-10T08:09:41;101243.81;;;12.89;50.04
12636;BME280;6383;50.830;7.210;2023-04-10T08:12:10;101236.81;;;12.97;49.12
12636;BME280;6383;50.830;7.210;2023-04-10T08:14:39;101239.47;;;13.02;48.58
12636;BME280;6383;50.830;7.210;2023-04-10T08:17:10;101235.22;;;13.10;48.20
12636;BME280;6383;50.830;7.210;2023-04-10T08:19:42;101232.44;;;13.15;47.72
12636;BME280;6383;50.830;7.210;2023-04-10T08:22:10;101225.75;;;13.21;47.67
12636;BME280;6383;50.830;7.210;2023-04-10T08:24:37;101225.06;;;13.29;47.45
12636;BME280;6383;50.830;7.210;2023-04-10T08:27:05;101216.16;;;13.37;47.22
12636;BME280;6383;50.830;7.210;2023-04-10T08:29:35;101219.31;;;13.44;47.17
12636;BME280;6383;50.830;7.210;2023-04-10T08:32:04;101211.22;;;13.53;46.34
12636;BME280;6383;50.830;7.210;2023-04-10T08:34:33;101206.66;;;13.62;46.02
12636;BME280;6383;50.830;7.210;2023-04-10T08:37:05;101212.22;;;13.70;45.92
12636;BME280;6383;50.830;7.210;2023-04-10T08:39:34;101201.69;;;13.77;45.27
12636;BME280;6383;50.830;7.210;2023-04-10T08:42:05;101205.31;;;13.87;44.86
12636;BME280;6383;50.830;7.210;2023-04-10T08:44:34;101208.94;;;13.96;45.08
12636;BME280;6383;50.830;7.210;2023-04-10T08:47:04;101201.31;;;14.06;43.97
12636;BME280;6383;50.830;7.210;2023-04-10T08:49:40;101197.22;;;14.18;44.73
12636;BME280;6383;50.830;7.210;2023-04-10T08:52:14;101191.50;;;14.28;44.04
12636;BME280;6383;50.830;7.210;2023-04-10T08:54:47;101195.94;;;14.37;43.89
12636;BME280;6383;50.830;7.210;2023-04-10T08:57:16;101184.28;;;14.45;43.64
12636;BME280;6383;50.830;7.210;2023-04-10T08:59:48;101191.25;;;14.52;42.78
12636;BME280;6383;50.830;7.210;2023-04-10T09:02:17;101182.91;;;14.57;42.99
12636;BME280;6383;50.830;7.210;2023-04-10T09:04:47;101181.97;;;14.61;42.92
12636;BME280;6383;50.830;7.210;2023-04-10T09:07:18;101168.97;;;14.67;42.93
12636;BME280;6383;50.830;7.210;2023-04-10T09:09:47;101158.16;;;14.70;41.81
12636;BME280;6383;50.830;7.210;2023-04-10T09:12:15;101162.22;;;14.73;41.51
12636;BME280;6383;50.830;7.210;2023-04-10T09:14:44;101155.00;;;14.77;41.74
12636;BME280;6383;50.830;7.210;2023-04-10T09:17:16;101156.16;;;14.85;42.54
12636;BME280;6383;50.830;7.210;2023-04-10T09:19:46;101139.25;;;14.91;42.58
12636;BME280;6383;50.830;7.210;2023-04-10T09:22:16;101144.94;;;14.95;41.42
12636;BME280;6383;50.830;7.210;2023-04-10T09:24:46;101133.00;;;14.99;41.95
12636;BME280;6383;50.830;7.210;2023-04-10T09:27:30;101120.47;;;15.07;43.00
12636;BME280;6383;50.830;7.210;2023-04-10T09:30:00;101128.38;;;15.08;41.61
12636;BME280;6383;50.830;7.210;2023-04-10T09:32:39;101118.88;;;15.14;41.61
12636;BME280;6383;50.830;7.210;2023-04-10T09:35:09;101115.50;;;15.17;41.72
12636;BME280;6383;50.830;7.210;2023-04-10T09:37:38;101104.09;;;15.24;42.48
12636;BME280;6383;50.830;7.210;2023-04-10T09:40:23;101116.19;;;15.32;42.34
12636;BME280;6383;50.830;7.210;2023-04-10T09:42:52;101105.88;;;15.37;41.69
12636;BME280;6383;50.830;7.210;2023-04-10T09:45:22;101113.16;;;15.42;40.95
12636;BME280;6383;50.830;7.210;2023-04-10T09:48:00;101102.34;;;15.45;40.54
12636;BME280;6383;50.830;7.210;2023-04-10T09:50:33;101106.38;;;15.48;41.02
12636;BME280;6383;50.830;7.210;2023-04-10T09:53:02;101106.56;;;15.51;40.34
12636;BME280;6383;50.830;7.210;2023-04-10T09:55:33;101114.47;;;15.53;39.79
12636;BME280;6383;50.830;7.210;2023-04-10T09:58:03;101118.56;;;15.56;39.99
12636;BME280;6383;50.830;7.210;2023-04-10T10:00:38;101109.66;;;15.59;39.45
12636;BME280;6383;50.830;7.210;2023-04-10T10:03:09;101096.91;;;15.63;39.33
12636;BME280;6383;50.830;7.210;2023-04-10T10:05:40;101094.66;;;15.65;39.49
12636;BME280;6383;50.830;7.210;2023-04-10T10:08:09;101087.41;;;15.69;39.30
12636;BME280;6383;50.830;7.210;2023-04-10T10:10:43;101077.56;;;15.76;39.39
12636;BME280;6383;50.830;7.210;2023-04-10T10:13:23;101086.94;;;15.84;40.05
12636;BME280;6383;50.830;7.210;2023-04-10T10:15:58;101093.53;;;15.92;38.81
12636;BME280;6383;50.830;7.210;2023-04-10T10:18:35;101087.25;;;16.00;38.89
12636;BME280;6383;50.830;7.210;2023-04-10T10:21:07;101078.84;;;16.05;38.38
12636;BME280;6383;50.830;7.210;2023-04-10T10:23:35;101074.81;;;16.11;38.66
12636;BME280;6383;50.830;7.210;2023-04-10T10:26:08;101073.50;;;16.17;39.10
12636;BME280;6383;50.830;7.210;2023-04-10T10:28:39;101072.19;;;16.23;38.74
12636;BME280;6383;50.830;7.210;2023-04-10T10:31:09;101059.91;;;16.29;38.57
12636;BME280;6383;50.830;7.210;2023-04-10T10:33:39;101059.88;;;16.38;38.33
12636;BME280;6383;50.830;7.210;2023-04-10T10:36:08;101052.28;;;16.43;38.27
12636;BME280;6383;50.830;7.210;2023-04-10T10:38:49;101047.41;;;16.49;37.72
12636;BME280;6383;50.830;7.210;2023-04-10T10:41:28;101045.28;;;16.54;37.82
12636;BME280;6383;50.830;7.210;2023-04-10T10:44:05;101034.13;;;16.60;38.54
12636;BME280;6383;50.830;7.210;2023-04-10T10:46:40;101031.53;;;16.63;38.14
12636;BME280;6383;50.830;7.210;2023-04-10T10:49:11;101022.47;;;16.71;37.31
12636;BME280;6383;50.830;7.210;2023-04-10T10:51:41;101007.88;;;16.79;37.77
12636;BME280;6383;50.830;7.210;2023-04-10T10:54:34;101006.81;;;16.92;38.25
12636;BME280;6383;50.830;7.210;2023-04-10T11:00:12;100989.41;;;17.09;36.79
12636;BME280;6383;50.830;7.210;2023-04-10T11:02:41;100985.16;;;17.20;36.33
12636;BME280;6383;50.830;7.210;2023-04-10T11:05:09;100973.25;;;17.28;35.79
12636;BME280;6383;50.830;7.210;2023-04-10T11:08:06;100969.44;;;17.42;36.97
12636;BME280;6383;50.830;7.210;2023-04-10T11:10:58;100958.38;;;17.50;36.91
12636;BME280;6383;50.830;7.210;2023-04-10T11:13:35;100956.53;;;17.54;35.10
12636;BME280;6383;50.830;7.210;2023-04-10T11:16:06;100943.38;;;17.60;34.89
12636;BME280;6383;50.830;7.210;2023-04-10T11:19:00;100930.34;;;17.69;35.53
12636;BME280;6383;50.830;7.210;2023-04-10T11:21:29;100937.47;;;17.70;34.46
12636;BME280;6383;50.830;7.210;2023-04-10T11:24:04;100935.66;;;17.74;34.61
12636;BME280;6383;50.830;7.210;2023-04-10T11:26:38;100920.41;;;17.77;35.71
12636;BME280;6383;50.830;7.210;2023-04-10T11:29:32;100916.28;;;17.83;35.78
12636;BME280;6383;50.830;7.210;2023-04-10T11:32:09;100917.09;;;17.83;35.01
12636;BME280;6383;50.830;7.210;2023-04-10T11:34:42;100905.41;;;17.86;36.29
12636;BME280;6383;50.830;7.210;2023-04-10T11:37:21;100901.97;;;17.89;35.01
12636;BME280;6383;50.830;7.210;2023-04-10T11:40:04;100893.50;;;17.94;35.13
12636;BME280;6383;50.830;7.210;2023-04-10T11:42:34;100869.53;;;17.95;35.23
12636;BME280;6383;50.830;7.210;2023-04-10T11:45:23;100885.00;;;18.00;34.87
12636;BME280;6383;50.830;7.210;2023-04-10T11:47:53;100877.53;;;18.00;34.17
12636;BME280;6383;50.830;7.210;2023-04-10T11:50:22;100872.50;;;18.02;33.16
12636;BME280;6383;50.830;7.210;2023-04-10T11:52:51;100857.56;;;18.03;33.92
12636;BME280;6383;50.830;7.210;2023-04-10T11:55:35;100858.03;;;18.05;34.25
12636;BME280;6383;50.830;7.210;2023-04-10T11:58:20;100856.09;;;18.06;34.21
12636;BME280;6383;50.830;7.210;2023-04-10T12:01:01;100860.00;;;18.05;34.21
12636;BME280;6383;50.830;7.210;2023-04-10T12:03:33;100855.16;;;18.02;33.76
12636;BME280;6383;50.830;7.210;2023-04-10T12:06:03;100850.00;;;18.00;32.99
12636;BME280;6383;50.830;7.210;2023-04-10T12:08:33;100842.53;;;18.01;34.16
12636;BME280;6383;50.830;7.210;2023-04-10T12:11:02;100844.81;;;17.98;33.39
12636;BME280;6383;50.830;7.210;2023-04-10T12:13:31;100846.78;;;17.98;33.86
12636;BME280;6383;50.830;7.210;2023-04-10T12:16:03;100845.63;;;17.99;33.99
12636;BME280;6383;50.830;7.210;2023-04-10T12:18:31;100848.84;;;18.01;34.36
12636;BME280;6383;50.830;7.210;2023-04-10T12:21:01;100838.63;;;18.02;33.72
12636;BME280;6383;50.830;7.210;2023-04-10T12:23:30;100835.53;;;18.03;34.71
12636;BME280;6383;50.830;7.210;2023-04-10T12:26:20;100844.72;;;18.07;34.77
12636;BME280;6383;50.830;7.210;2023-04-10T12:28:50;100831.31;;;18.06;34.65
12636;BME280;6383;50.830;7.210;2023-04-10T12:31:27;100835.66;;;18.07;34.23
12636;BME280;6383;50.830;7.210;2023-04-10T12:33:56;100820.75;;;18.08;33.78
12636;BME280;6383;50.830;7.210;2023-04-10T12:36:27;100811.00;;;18.10;34.03
12636;BME280;6383;50.830;7.210;2023-04-10T12:38:57;100808.69;;;18.12;33.74
12636;BME280;6383;50.830;7.210;2023-04-10T12:41:28;100811.09;;;18.14;33.69
12636;BME280;6383;50.830;7.210;2023-04-10T12:44:08;100796.97;;;18.15;34.62
12636;BME280;6383;50.830;7.210;2023-04-10T12:46:39;100806.03;;;18.16;34.35
12636;BME280;6383;50.830;7.210;2023-04-10T12:49:11;100812.00;;;18.18;34.49
12636;BME280;6383;50.830;7.210;2023-04-10T12:51:46;100795.47;;;18.18;34.80
12636;BME280;6383;50.830;7.210;2023-04-10T12:54:27;100799.50;;;18.20;34.30
12636;BME280;6383;50.830;7.210;2023-04-10T12:56:56;100796.88;;;18.24;34.10
12636;BME280;6383;50.830;7.210;2023-04-10T12:59:24;100794.31;;;18.31;34.69
12636;BME280;6383;50.830;7.210;2023-04-10T13:01:57;100781.56;;;18.39;34.30
12636;BME280;6383;50.830;7.210;2023-04-10T13:04:29;100780.28;;;18.48;34.66
12636;BME280;6383;50.830;7.210;2023-04-10T13:06:57;100771.53;;;18.58;33.86
12636;BME280;6383;50.830;7.210;2023-04-10T13:09:27;100779.78;;;18.71;34.15
12636;BME280;6383;50.830;7.210;2023-04-10T13:11:56;100775.03;;;18.83;33.39
12636;BME280;6383;50.830;7.210;2023-04-10T13:14:25;100765.00;;;18.91;33.28
12636;BME280;6383;50.830;7.210;2023-04-10T13:16:54;100777.06;;;18.98;34.22
12636;BME280;6383;50.830;7.210;2023-04-10T13:19:24;100764.94;;;19.03;33.00
12636;BME280;6383;50.830;7.210;2023-04-10T13:21:54;100763.44;;;19.06;32.52
12636;BME280;6383;50.830;7.210;2023-04-10T13:24:23;100761.47;;;19.06;32.36
12636;BME280;6383;50.830;7.210;2023-04-10T13:26:53;100748.03;;;19.05;32.21
12636;BME280;6383;50.830;7.210;2023-04-10T13:29:23;100749.53;;;19.02;32.09